Search for airport 
image banner adimage banner adimage banner ad
image banner ad

85CA - Redwood Coast Medical Services

Located in Gualala, United States

ICAO - 85CA, IATA -

Data provided by Airmate  

General information

Coordinates: N38°46'15" W123°31'46"
Elevation is 172 feet MSL.
Magnetic variation is 16° East
View others Airports in California

Operational data

Special qualification required
Current time UTC:
Current local time:
Weather at : KUKI - Ukiah Muni ( 49 km )
METAR: KUKI 141209Z AUTO 00000KT 10SM SCT030 BKN060 17/13 A2999 RMK AO2 T01720128
TAF: KUKI 141130Z 1412/1512 VRB05KT P6SM BKN025 FM141600 32007KT P6SM SCT050 FM142100 29015KT P6SM SCT250 FM150300 35008KT P6SM FEW250 FM151000 VRB05KT P6SM SCT035
View NOTAMs / SUP AIP / TFR affecting this airport [VIEW]
Communications frequencies: [VIEW]

Runways:

Airport contact information

Address: Gualala United States

Satellite view of 85CA